createdAt,value
2023-02-21T00:01:58.013Z,23.93
2023-02-21T00:16:58.598Z,21.26
2023-02-21T00:31:58.272Z,21.56
2023-02-21T00:46:58.840Z,20.96
2023-02-21T01:02:00.785Z,20.43
2023-02-21T01:17:12.545Z,20.43
2023-02-21T01:32:06.309Z,20.13
2023-02-21T01:47:06.356Z,22.39
2023-02-21T02:02:06.059Z,22.99
2023-02-21T02:17:06.127Z,25.67
2023-02-21T02:32:06.398Z,27.41
2023-02-21T02:47:06.725Z,30.69
2023-02-21T03:02:07.346Z,33.14
2023-02-21T03:17:07.038Z,37.45
2023-02-21T03:32:07.668Z,38.68
2023-02-21T03:47:07.672Z,34.38
2023-02-21T04:02:07.865Z,31.50
2023-02-21T04:17:08.401Z,31.81
2023-02-21T04:32:09.086Z,28.01
2023-02-21T04:47:09.989Z,23.82
2023-02-21T05:02:10.178Z,21.35
2023-02-21T05:17:10.262Z,19.30
2023-02-21T05:32:11.415Z,19.60
2023-02-21T05:47:11.959Z,18.38
2023-02-21T06:02:12.078Z,20.12
2023-02-21T06:17:12.588Z,25.97
2023-02-21T06:32:13.235Z,36.55
2023-02-21T06:47:14.253Z,30.50
2023-02-21T07:02:14.857Z,38.10
2023-02-21T07:17:14.922Z,44.57
2023-02-21T07:32:14.643Z,43.84
2023-02-21T07:47:14.707Z,71.72
2023-02-21T08:02:15.215Z,82.56
2023-02-21T08:17:15.297Z,78.67
2023-02-21T08:32:15.446Z,88.10
2023-02-21T08:47:15.795Z,99.99
2023-02-21T09:02:16.940Z,99.99
2023-02-21T09:17:16.954Z,99.99
2023-02-21T09:32:17.585Z,99.99
2023-02-21T09:47:17.650Z,99.99
2023-02-21T10:02:17.773Z,94.89
2023-02-21T10:17:18.337Z,96.89
2023-02-21T10:32:19.444Z,97.46
2023-02-21T10:47:20.533Z,97.06
2023-02-21T11:02:21.575Z,93.99
2023-02-21T11:17:22.140Z,90.58
2023-02-21T11:32:22.357Z,90.21
2023-02-21T11:47:22.893Z,88.59
2023-02-21T12:02:23.645Z,85.92
2023-02-21T12:17:24.535Z,81.59
2023-02-21T12:32:24.795Z,80.24
2023-02-21T12:47:26.021Z,79.90
2023-02-21T13:02:27.022Z,80.34
2023-02-21T13:17:27.508Z,79.02
2023-02-21T13:32:28.126Z,84.07
2023-02-21T13:47:29.525Z,83.91
2023-02-21T14:02:30.040Z,84.93
2023-02-21T14:17:31.031Z,87.63
2023-02-21T14:32:31.244Z,88.45
2023-02-21T14:47:31.825Z,89.00
2023-02-21T15:02:32.779Z,89.51
2023-02-21T15:17:32.993Z,89.42
2023-02-21T15:32:33.585Z,89.25
2023-02-21T15:47:33.951Z,90.62
2023-02-21T16:02:35.468Z,92.51
2023-02-21T16:17:36.029Z,94.98
2023-02-21T16:32:37.097Z,98.04
2023-02-21T16:47:37.274Z,99.99
2023-02-21T17:02:37.956Z,99.99
2023-02-21T17:17:38.955Z,99.99
2023-02-21T17:32:39.141Z,99.99
2023-02-21T17:47:39.665Z,99.99
2023-02-21T18:02:40.291Z,99.99
2023-02-21T18:17:41.422Z,99.99
2023-02-21T18:32:42.922Z,99.99
2023-02-21T18:47:43.083Z,99.99
2023-02-21T19:02:43.690Z,99.99
2023-02-21T19:17:44.275Z,99.99
2023-02-21T19:32:44.896Z,99.99
2023-02-21T19:47:46.003Z,99.99
2023-02-21T20:02:47.613Z,99.99
2023-02-21T20:17:47.711Z,99.99
2023-02-21T20:32:48.317Z,99.99
2023-02-21T20:47:48.898Z,99.99
2023-02-21T21:02:49.515Z,99.99
2023-02-21T21:17:50.608Z,99.99
2023-02-21T21:32:50.725Z,99.99
2023-02-21T21:47:51.335Z,99.99
2023-02-21T22:02:52.345Z,98.14
2023-02-21T22:17:52.517Z,99.99
2023-02-21T22:32:53.149Z,99.90
2023-02-21T22:47:53.744Z,99.99
2023-02-21T23:02:54.414Z,98.97
2023-02-21T23:17:54.939Z,98.35
2023-02-21T23:32:55.963Z,97.56
2023-02-21T23:47:56.152Z,97.98
